Time;durP1;ratioP1;P1;durP2;ratioP2;P2;SDS_P1;SDS_P2;PMS_P1;PMS_P2;Temp;Humidity;BMP_temperature;BMP_pressure;BME280_temperature;BME280_humidity;BME280_pressure;Samples;Min_cycle;Max_cycle;Signal;HPM_P1;HPM_P2
2022/09/11 00:01:32;;;;;;;;;;;16.60;90.40;;;;;;5044223;28;20652;-76
2022/09/11 00:03:59;;;;;;;;;;;16.60;90.40;;;;;;5041436;28;20403;-76
2022/09/11 00:06:26;;;;;;;;;;;16.60;90.50;;;;;;5042983;28;19983;-75
2022/09/11 00:08:53;;;;;;;;;;;16.60;90.50;;;;;;5041944;28;19929;-76
2022/09/11 00:11:21;;;;;;;;;;;16.60;90.50;;;;;;5039571;28;19967;-75
2022/09/11 00:13:50;;;;;;;;;;;16.60;90.50;;;;;;5042664;28;19928;-76
2022/09/11 00:16:20;;;;;;;;;;;16.60;90.60;;;;;;5042600;28;20347;-75
2022/09/11 00:18:47;;;;;;;;;;;16.60;90.60;;;;;;5042128;28;19943;-76
2022/09/11 00:21:14;;;;;;;;;;;16.50;90.50;;;;;;5043963;28;20801;-75
2022/09/11 00:23:40;;;;;;;;;;;16.60;90.60;;;;;;5043634;28;20382;-76
2022/09/11 00:26:08;;;;;;;;;;;16.50;90.60;;;;;;5042269;28;20546;-75
2022/09/11 00:28:35;;;;;;;;;;;16.50;90.60;;;;;;5043737;28;20037;-75
2022/09/11 00:31:06;;;;;;;;;;;16.50;90.60;;;;;;5043684;28;19960;-75
2022/09/11 00:33:33;;;;;;;;;;;16.50;90.60;;;;;;5042242;28;20050;-76
2022/09/11 00:36:02;;;;;;;;;;;16.50;90.60;;;;;;5045200;28;19937;-75
2022/09/11 00:38:29;;;;;;;;;;;16.50;90.60;;;;;;5042785;28;19928;-75
2022/09/11 00:40:57;;;;;;;;;;;16.50;90.70;;;;;;5042910;28;19936;-76
2022/09/11 00:43:24;;;;;;;;;;;16.50;90.70;;;;;;5043602;28;20403;-76
2022/09/11 00:45:54;;;;;;;;;;;16.50;90.70;;;;;;5043947;28;19928;-75
2022/09/11 00:48:23;;;;;;;;;;;16.40;90.70;;;;;;5040329;28;20016;-75
2022/09/11 00:50:50;;;;;;;;;;;16.50;90.70;;;;;;5042566;28;19939;-76
2022/09/11 00:53:19;;;;;;;;;;;16.50;90.70;;;;;;5041520;28;20002;-75
2022/09/11 00:55:49;;;;;;;;;;;16.50;90.70;;;;;;5041759;28;19931;-76
2022/09/11 00:58:17;;;;;;;;;;;16.40;90.70;;;;;;5039700;28;20043;-75
2022/09/11 01:00:44;;;;;;;;;;;16.40;90.70;;;;;;5039468;28;19925;-75
2022/09/11 01:03:11;;;;;;;;;;;16.40;90.70;;;;;;5040790;28;20352;-74
2022/09/11 01:05:39;;;;;;;;;;;16.40;90.80;;;;;;5040271;28;20463;-75
2022/09/11 01:08:07;;;;;;;;;;;16.40;90.80;;;;;;5041040;28;19933;-75
2022/09/11 01:10:38;;;;;;;;;;;16.40;90.80;;;;;;5038448;28;19933;-75
2022/09/11 01:13:08;;;;;;;;;;;16.40;90.80;;;;;;5041160;28;19940;-74
2022/09/11 01:15:37;;;;;;;;;;;16.40;90.80;;;;;;5040380;28;19932;-75
2022/09/11 01:18:09;;;;;;;;;;;16.40;90.80;;;;;;5037504;28;19932;-75
2022/09/11 01:20:42;;;;;;;;;;;16.40;90.80;;;;;;5042356;28;20459;-75
2022/09/11 01:23:24;;;;;;;;;;;16.40;90.80;;;;;;5042465;28;20407;-75
2022/09/11 01:25:59;;;;;;;;;;;16.40;90.80;;;;;;5041809;28;20010;-75
2022/09/11 01:28:32;;;;;;;;;;;16.40;90.90;;;;;;5041540;28;20111;-75
2022/09/11 01:31:01;;;;;;;;;;;16.30;90.80;;;;;;5036557;28;19929;-75
2022/09/11 01:33:29;;;;;;;;;;;16.30;90.80;;;;;;5040620;28;19929;-75
2022/09/11 01:35:58;;;;;;;;;;;16.30;90.80;;;;;;5038950;28;20612;-75
2022/09/11 01:38:36;;;;;;;;;;;16.40;90.90;;;;;;5039982;28;19928;-76
2022/09/11 01:41:06;;;;;;;;;;;16.40;90.90;;;;;;5036560;28;20367;-75
2022/09/11 01:43:36;;;;;;;;;;;16.30;90.80;;;;;;5038904;28;20006;-75
2022/09/11 01:46:06;;;;;;;;;;;16.30;90.80;;;;;;5039059;28;19932;-75
2022/09/11 01:48:40;;;;;;;;;;;16.30;90.80;;;;;;5040532;28;19968;-75
2022/09/11 01:51:08;;;;;;;;;;;16.30;90.90;;;;;;5036945;28;19929;-75
2022/09/11 01:53:37;;;;;;;;;;;16.30;90.90;;;;;;5040036;28;19935;-76
2022/09/11 01:56:06;;;;;;;;;;;16.30;90.90;;;;;;5039448;28;20051;-75
2022/09/11 01:58:35;;;;;;;;;;;16.30;90.90;;;;;;5038926;28;20304;-74
2022/09/11 02:01:04;;;;;;;;;;;16.30;91.20;;;;;;5039151;28;20039;-75
2022/09/11 02:03:35;;;;;;;;;;;16.30;90.90;;;;;;5038554;28;19929;-75
2022/09/11 02:06:05;;;;;;;;;;;16.30;91.00;;;;;;5039173;28;19928;-75
2022/09/11 02:08:35;;;;;;;;;;;16.30;90.90;;;;;;5038691;28;19932;-75
2022/09/11 02:11:05;;;;;;;;;;;16.30;90.90;;;;;;5039663;28;20031;-75
2022/09/11 02:13:34;;;;;;;;;;;16.30;90.90;;;;;;5039407;28;19979;-76
2022/09/11 02:16:05;;;;;;;;;;;16.30;90.90;;;;;;5041183;28;19974;-75
2022/09/11 02:18:36;;;;;;;;;;;16.30;91.00;;;;;;5041553;28;20439;-76
2022/09/11 02:21:02;;;;;;;;;;;16.30;91.00;;;;;;5042129;28;19929;-76
2022/09/11 02:23:29;;;;;;;;;;;16.30;91.00;;;;;;5045872;28;19928;-76
2022/09/11 02:25:55;;;;;;;;;;;16.30;91.10;;;;;;5042623;28;19929;-75
2022/09/11 02:28:22;;;;;;;;;;;16.30;91.00;;;;;;5043032;28;19933;-76
2022/09/11 02:30:49;;;;;;;;;;;16.30;91.00;;;;;;5043680;28;19929;-76
2022/09/11 02:33:28;;;;;;;;;;;16.30;91.10;;;;;;5042075;28;19928;-75
2022/09/11 02:36:01;;;;;;;;;;;16.30;91.10;;;;;;5045276;28;19933;-76
2022/09/11 02:38:30;;;;;;;;;;;16.20;91.10;;;;;;5044684;28;19936;-76
2022/09/11 02:41:00;;;;;;;;;;;16.30;91.10;;;;;;5044240;28;19929;-76
2022/09/11 02:43:34;;;;;;;;;;;16.30;91.10;;;;;;5047831;28;19937;-76
2022/09/11 02:46:09;;;;;;;;;;;16.20;91.10;;;;;;5044651;28;19929;-75
2022/09/11 02:48:43;;;;;;;;;;;16.20;91.10;;;;;;5041582;28;19929;-76
2022/09/11 02:51:16;;;;;;;;;;;16.20;91.10;;;;;;5043321;28;19925;-76
2022/09/11 02:53:47;;;;;;;;;;;16.30;91.10;;;;;;5043090;28;19933;-76
2022/09/11 02:56:16;;;;;;;;;;;16.30;91.10;;;;;;5040974;28;19929;-76
2022/09/11 02:58:45;;;;;;;;;;;16.20;91.10;;;;;;5044529;28;20442;-76
2022/09/11 03:01:12;;;;;;;;;;;16.30;91.20;;;;;;5042103;28;19933;-76
2022/09/11 03:03:40;;;;;;;;;;;16.20;91.10;;;;;;5043076;28;19967;-76
2022/09/11 03:06:10;;;;;;;;;;;16.30;91.20;;;;;;5042453;28;19928;-76
2022/09/11 03:08:36;;;;;;;;;;;16.20;91.10;;;;;;5041427;28;19932;-76
2022/09/11 03:11:03;;;;;;;;;;;16.20;91.10;;;;;;5042908;28;19936;-75
2022/09/11 03:13:30;;;;;;;;;;;16.20;91.10;;;;;;5042373;28;19935;-76
2022/09/11 03:15:56;;;;;;;;;;;16.20;91.10;;;;;;5041571;28;20322;-77
2022/09/11 03:18:23;;;;;;;;;;;16.30;91.10;;;;;;5042285;28;19963;-76
2022/09/11 03:20:51;;;;;;;;;;;16.20;91.10;;;;;;5044888;28;19929;-76
2022/09/11 03:23:17;;;;;;;;;;;16.30;91.20;;;;;;5044850;28;19929;-77
2022/09/11 03:25:44;;;;;;;;;;;16.20;91.10;;;;;;5042817;28;19951;-76
2022/09/11 03:28:10;;;;;;;;;;;16.20;91.20;;;;;;5041431;28;19936;-76
2022/09/11 03:30:37;;;;;;;;;;;16.20;91.20;;;;;;5040203;28;19937;-74
2022/09/11 03:33:04;;;;;;;;;;;16.20;91.30;;;;;;5039498;28;20613;-75
2022/09/11 03:35:30;;;;;;;;;;;16.20;91.20;;;;;;5042415;28;20019;-76
2022/09/11 03:37:59;;;;;;;;;;;16.20;91.20;;;;;;5043215;28;19935;-76
2022/09/11 03:40:26;;;;;;;;;;;16.30;91.20;;;;;;5043496;28;19937;-76
2022/09/11 03:42:52;;;;;;;;;;;16.30;91.20;;;;;;5041482;28;19933;-76
2022/09/11 03:45:20;;;;;;;;;;;16.20;91.10;;;;;;5042732;28;20011;-76
2022/09/11 03:47:47;;;;;;;;;;;16.20;91.10;;;;;;5040549;28;19933;-76
2022/09/11 03:50:13;;;;;;;;;;;16.20;91.10;;;;;;5041103;28;20024;-76
2022/09/11 03:52:40;;;;;;;;;;;16.30;91.10;;;;;;5033874;28;19933;-76
2022/09/11 03:55:08;;;;;;;;;;;16.20;91.20;;;;;;5038730;28;19951;-75
2022/09/11 03:57:35;;;;;;;;;;;16.20;91.20;;;;;;5039376;28;19940;-76
2022/09/11 04:00:02;;;;;;;;;;;16.20;91.20;;;;;;5039398;28;20482;-76
2022/09/11 04:02:29;;;;;;;;;;;16.20;91.10;;;;;;5038424;28;20456;-75
2022/09/11 04:04:56;;;;;;;;;;;16.30;91.20;;;;;;5040964;28;19939;-76
2022/09/11 04:07:23;;;;;;;;;;;16.20;91.20;;;;;;5041359;28;19939;-76
2022/09/11 04:09:49;;;;;;;;;;;16.20;91.20;;;;;;5036915;28;19936;-76
2022/09/11 04:12:18;;;;;;;;;;;16.20;91.20;;;;;;5039469;28;19929;-76
2022/09/11 04:14:44;;;;;;;;;;;16.20;91.20;;;;;;5042352;28;19932;-75
2022/09/11 04:17:11;;;;;;;;;;;16.20;91.20;;;;;;5039286;28;19982;-76
2022/09/11 04:19:37;;;;;;;;;;;16.20;91.20;;;;;;5041369;28;19932;-76
2022/09/11 04:22:04;;;;;;;;;;;16.20;91.20;;;;;;5040197;28;19924;-75
2022/09/11 04:24:30;;;;;;;;;;;16.20;91.20;;;;;;5040833;28;20400;-76
2022/09/11 04:26:59;;;;;;;;;;;16.20;91.20;;;;;;5041145;28;19939;-76
2022/09/11 04:29:27;;;;;;;;;;;16.20;91.50;;;;;;5039420;28;19975;-76
2022/09/11 04:31:54;;;;;;;;;;;16.30;91.20;;;;;;5039714;28;20178;-75
2022/09/11 04:34:21;;;;;;;;;;;16.20;91.30;;;;;;5039117;28;20039;-75
2022/09/11 04:36:48;;;;;;;;;;;16.20;91.20;;;;;;5040322;28;20337;-76
2022/09/11 04:39:14;;;;;;;;;;;16.20;91.20;;;;;;5041280;28;20725;-76
2022/09/11 04:41:43;;;;;;;;;;;16.20;91.20;;;;;;5039150;28;19929;-76
2022/09/11 04:44:09;;;;;;;;;;;16.20;91.20;;;;;;5038339;28;19932;-76
2022/09/11 04:46:37;;;;;;;;;;;16.20;91.20;;;;;;5038797;28;19929;-76
2022/09/11 04:49:04;;;;;;;;;;;16.20;91.20;;;;;;5040293;28;20018;-75
2022/09/11 04:51:32;;;;;;;;;;;16.20;91.30;;;;;;5037927;28;19928;-75
2022/09/11 04:53:59;;;;;;;;;;;16.20;91.30;;;;;;5040465;28;19928;-75
2022/09/11 04:56:26;;;;;;;;;;;16.20;91.30;;;;;;5038971;28;19943;-75
2022/09/11 04:58:54;;;;;;;;;;;16.20;91.30;;;;;;5041112;28;19979;-76
2022/09/11 05:01:21;;;;;;;;;;;16.20;91.30;;;;;;5036956;28;20038;-76
2022/09/11 05:03:49;;;;;;;;;;;16.20;91.30;;;;;;5036587;28;19940;-76
2022/09/11 05:06:16;;;;;;;;;;;16.20;91.30;;;;;;5039081;28;19932;-75
2022/09/11 05:08:43;;;;;;;;;;;16.20;91.30;;;;;;5040723;28;19959;-76
2022/09/11 05:11:11;;;;;;;;;;;16.20;91.30;;;;;;5038251;28;19964;-75
2022/09/11 05:13:37;;;;;;;;;;;16.20;91.30;;;;;;5038687;28;19929;-76
2022/09/11 05:16:04;;;;;;;;;;;16.20;91.30;;;;;;5039352;28;19971;-74
2022/09/11 05:18:31;;;;;;;;;;;16.20;91.30;;;;;;5039356;28;20320;-75
2022/09/11 05:21:03;;;;;;;;;;;16.20;91.30;;;;;;5038779;28;20408;-76
2022/09/11 05:23:30;;;;;;;;;;;16.20;91.30;;;;;;5041063;28;20028;-76
2022/09/11 05:25:57;;;;;;;;;;;16.20;91.30;;;;;;5039068;28;19936;-76
2022/09/11 05:28:24;;;;;;;;;;;16.20;91.30;;;;;;5040617;28;20045;-75
2022/09/11 05:30:52;;;;;;;;;;;16.20;91.30;;;;;;5039006;28;20304;-75
2022/09/11 05:33:18;;;;;;;;;;;16.20;91.30;;;;;;5037964;28;19929;-75
2022/09/11 05:35:45;;;;;;;;;;;16.20;91.30;;;;;;5038954;28;20031;-75
2022/09/11 05:38:13;;;;;;;;;;;16.20;91.30;;;;;;5040823;28;19925;-76
2022/09/11 05:40:43;;;;;;;;;;;16.20;91.30;;;;;;5040276;28;20493;-76
2022/09/11 05:43:11;;;;;;;;;;;16.20;91.30;;;;;;5038573;28;20019;-76
2022/09/11 05:45:37;;;;;;;;;;;16.20;91.30;;;;;;5037712;28;19929;-76
2022/09/11 05:48:04;;;;;;;;;;;16.20;91.30;;;;;;5038223;28;19937;-75
2022/09/11 05:50:31;;;;;;;;;;;16.20;91.30;;;;;;5038889;28;19936;-76
2022/09/11 05:52:58;;;;;;;;;;;16.20;91.30;;;;;;5040001;28;19925;-75
2022/09/11 05:55:26;;;;;;;;;;;16.20;91.30;;;;;;5040515;28;19932;-76
2022/09/11 05:57:53;;;;;;;;;;;16.20;91.30;;;;;;5038470;28;19936;-76
2022/09/11 06:00:20;;;;;;;;;;;16.20;91.30;;;;;;5040727;28;19933;-75
2022/09/11 06:02:47;;;;;;;;;;;16.20;91.40;;;;;;5042291;28;20039;-74
2022/09/11 06:05:14;;;;;;;;;;;16.20;91.50;;;;;;5039171;28;20474;-76
2022/09/11 06:07:41;;;;;;;;;;;16.20;91.40;;;;;;5038399;28;19929;-75
2022/09/11 06:10:08;;;;;;;;;;;16.20;91.40;;;;;;5035645;28;20641;-75
2022/09/11 06:12:35;;;;;;;;;;;16.20;91.40;;;;;;5039559;28;19987;-75
2022/09/11 06:15:02;;;;;;;;;;;16.20;91.40;;;;;;5040235;28;19936;-75
2022/09/11 06:17:29;;;;;;;;;;;16.20;91.40;;;;;;5036412;28;20288;-75
2022/09/11 06:19:55;;;;;;;;;;;16.20;91.30;;;;;;5039844;28;20383;-75
2022/09/11 06:22:22;;;;;;;;;;;16.20;91.30;;;;;;5039773;28;19974;-75
2022/09/11 06:24:48;;;;;;;;;;;16.20;91.70;;;;;;5037697;28;19933;-75
2022/09/11 06:27:15;;;;;;;;;;;16.20;91.40;;;;;;5041539;28;19925;-75
2022/09/11 06:29:43;;;;;;;;;;;16.20;91.40;;;;;;5037813;28;20389;-75
2022/09/11 06:32:10;;;;;;;;;;;16.20;91.40;;;;;;5037801;28;19930;-75
2022/09/11 06:34:37;;;;;;;;;;;16.20;91.40;;;;;;5036360;28;19933;-75
2022/09/11 06:37:04;;;;;;;;;;;16.20;91.40;;;;;;5038923;28;19929;-74
2022/09/11 06:39:30;;;;;;;;;;;16.20;91.40;;;;;;5040001;28;19936;-75
2022/09/11 06:41:57;;;;;;;;;;;16.20;91.40;;;;;;5036935;28;20406;-73
2022/09/11 06:44:26;;;;;;;;;;;16.30;91.50;;;;;;5040051;28;19940;-76
2022/09/11 06:46:54;;;;;;;;;;;16.20;91.40;;;;;;5038162;28;19933;-75
2022/09/11 06:49:20;;;;;;;;;;;16.20;91.40;;;;;;5034802;28;19940;-75
2022/09/11 06:51:47;;;;;;;;;;;16.30;91.50;;;;;;5037520;28;19979;-75
2022/09/11 06:54:14;;;;;;;;;;;16.30;91.50;;;;;;5039193;28;19933;-75
2022/09/11 06:56:41;;;;;;;;;;;16.30;91.40;;;;;;5037087;28;19929;-75
2022/09/11 06:59:09;;;;;;;;;;;16.30;91.40;;;;;;5038080;28;19955;-75
2022/09/11 07:01:35;;;;;;;;;;;16.30;91.40;;;;;;5040146;28;19933;-75
2022/09/11 07:04:03;;;;;;;;;;;16.30;91.30;;;;;;5037446;28;19987;-75
2022/09/11 07:06:30;;;;;;;;;;;16.30;91.30;;;;;;5040239;28;20636;-75
2022/09/11 07:09:00;;;;;;;;;;;16.30;91.40;;;;;;5040773;28;19929;-75
2022/09/11 07:11:27;;;;;;;;;;;16.30;91.40;;;;;;5039960;28;19936;-75
2022/09/11 07:13:54;;;;;;;;;;;16.30;91.30;;;;;;5042295;28;19928;-74
2022/09/11 07:16:20;;;;;;;;;;;16.30;91.30;;;;;;5042246;28;20148;-74
2022/09/11 07:18:47;;;;;;;;;;;16.30;91.40;;;;;;5040845;28;19935;-75
2022/09/11 07:21:16;;;;;;;;;;;16.30;91.40;;;;;;5040592;28;19928;-74
2022/09/11 07:23:43;;;;;;;;;;;16.40;91.40;;;;;;5041287;28;20415;-75
2022/09/11 07:26:10;;;;;;;;;;;16.30;91.30;;;;;;5041150;28;20027;-75
2022/09/11 07:28:37;;;;;;;;;;;16.40;91.40;;;;;;5042392;28;19928;-75
2022/09/11 07:31:09;;;;;;;;;;;16.40;91.50;;;;;;5041132;28;19929;-74
2022/09/11 07:33:36;;;;;;;;;;;16.40;91.50;;;;;;5044558;28;20356;-75
2022/09/11 07:36:05;;;;;;;;;;;16.40;91.40;;;;;;5042566;28;19931;-76
2022/09/11 07:38:33;;;;;;;;;;;16.40;91.80;;;;;;5045406;28;19935;-75
2022/09/11 07:41:00;;;;;;;;;;;16.40;91.50;;;;;;5042275;28;19935;-75
2022/09/11 07:43:26;;;;;;;;;;;16.40;91.50;;;;;;5043190;28;19936;-74
2022/09/11 07:45:55;;;;;;;;;;;16.50;91.60;;;;;;5042213;28;20020;-75
2022/09/11 07:48:22;;;;;;;;;;;16.50;91.50;;;;;;5042766;28;19935;-75
2022/09/11 07:50:55;;;;;;;;;;;16.50;91.50;;;;;;5042258;28;19928;-75
2022/09/11 07:53:21;;;;;;;;;;;16.50;91.50;;;;;;5042796;28;19933;-75
2022/09/11 07:55:49;;;;;;;;;;;16.50;91.40;;;;;;5033442;28;20422;-74
2022/09/11 07:58:16;;;;;;;;;;;16.50;91.30;;;;;;5032253;28;20765;-75
2022/09/11 08:00:44;;;;;;;;;;;16.50;91.30;;;;;;5032780;28;20531;-76
2022/09/11 08:03:10;;;;;;;;;;;16.60;91.30;;;;;;5039321;28;19936;-75
2022/09/11 08:05:37;;;;;;;;;;;16.60;91.30;;;;;;5040792;28;20396;-75
2022/09/11 08:08:03;;;;;;;;;;;16.60;91.30;;;;;;5040698;28;19936;-74
2022/09/11 08:10:30;;;;;;;;;;;16.60;91.20;;;;;;5033876;28;19935;-75
2022/09/11 08:12:59;;;;;;;;;;;16.70;91.30;;;;;;5040821;28;19937;-76
2022/09/11 08:15:26;;;;;;;;;;;16.70;91.40;;;;;;5042117;28;19941;-75
2022/09/11 08:17:53;;;;;;;;;;;16.70;91.40;;;;;;5044298;28;20290;-75
2022/09/11 08:20:20;;;;;;;;;;;16.70;91.40;;;;;;5037218;28;19935;-75
2022/09/11 08:22:47;;;;;;;;;;;16.80;91.40;;;;;;5041177;28;19939;-75
2022/09/11 08:25:13;;;;;;;;;;;16.80;91.30;;;;;;5039003;28;19932;-74
2022/09/11 08:27:40;;;;;;;;;;;16.80;91.30;;;;;;5039482;28;20424;-74
2022/09/11 08:30:09;;;;;;;;;;;16.90;91.30;;;;;;5038841;28;19934;-74
2022/09/11 08:32:35;;;;;;;;;;;16.90;91.30;;;;;;5036067;28;19940;-74
2022/09/11 08:35:02;;;;;;;;;;;16.90;91.30;;;;;;5039531;28;19932;-74
2022/09/11 08:37:28;;;;;;;;;;;17.00;91.30;;;;;;5037876;28;19928;-75
2022/09/11 08:39:55;;;;;;;;;;;17.00;91.20;;;;;;5039565;28;19966;-74
2022/09/11 08:42:23;;;;;;;;;;;17.00;91.00;;;;;;5039589;28;19929;-75
2022/09/11 08:44:51;;;;;;;;;;;17.10;90.90;;;;;;5036417;28;19933;-74
2022/09/11 08:47:23;;;;;;;;;;;17.10;90.80;;;;;;5040803;28;19932;-75
2022/09/11 08:49:53;;;;;;;;;;;17.20;90.80;;;;;;5036993;28;19944;-75
2022/09/11 08:52:20;;;;;;;;;;;17.10;90.60;;;;;;5039629;28;19964;-75
2022/09/11 08:54:46;;;;;;;;;;;17.10;90.60;;;;;;5038318;28;19929;-75
2022/09/11 08:57:17;;;;;;;;;;;17.20;90.60;;;;;;5040922;28;20644;-74
2022/09/11 09:00:00;;;;;;;;;;;17.20;90.50;;;;;;5042135;28;19935;-74
2022/09/11 09:02:39;;;;;;;;;;;17.20;90.40;;;;;;5041625;28;19928;-75
2022/09/11 09:05:19;;;;;;;;;;;17.30;90.30;;;;;;5040142;28;20641;-75
2022/09/11 09:07:51;;;;;;;;;;;17.30;90.20;;;;;;5040302;28;20285;-75
2022/09/11 09:10:23;;;;;;;;;;;17.40;90.10;;;;;;5038440;28;19939;-75
2022/09/11 09:12:52;;;;;;;;;;;17.40;90.00;;;;;;5033565;28;19933;-75
2022/09/11 09:15:24;;;;;;;;;;;17.40;90.00;;;;;;5040504;28;20719;-75
2022/09/11 09:17:55;;;;;;;;;;;17.40;89.80;;;;;;5043460;28;20308;-75
2022/09/11 09:20:26;;;;;;;;;;;17.50;89.60;;;;;;5038287;28;20039;-75
2022/09/11 09:22:54;;;;;;;;;;;17.50;89.10;;;;;;5042317;28;19929;-75
2022/09/11 09:25:22;;;;;;;;;;;17.50;88.80;;;;;;5037068;28;19928;-75
2022/09/11 09:27:50;;;;;;;;;;;17.60;88.80;;;;;;5038721;28;20033;-74
2022/09/11 09:30:20;;;;;;;;;;;17.70;88.60;;;;;;5042518;28;20211;-75
2022/09/11 09:32:49;;;;;;;;;;;17.70;88.40;;;;;;5041211;28;19951;-74
2022/09/11 09:35:19;;;;;;;;;;;17.80;88.10;;;;;;5040034;28;20468;-76
2022/09/11 09:37:45;;;;;;;;;;;17.80;87.90;;;;;;5043182;28;20419;-76
2022/09/11 09:40:15;;;;;;;;;;;17.80;87.50;;;;;;5037087;28;19933;-75
2022/09/11 09:42:59;;;;;;;;;;;17.90;87.20;;;;;;5039402;28;19939;-76
2022/09/11 09:45:35;;;;;;;;;;;17.90;87.10;;;;;;5041992;28;20530;-75
2022/09/11 09:48:03;;;;;;;;;;;18.00;87.00;;;;;;5039479;28;19936;-75
2022/09/11 09:50:32;;;;;;;;;;;18.00;87.00;;;;;;5040124;28;20319;-75
2022/09/11 09:53:03;;;;;;;;;;;18.00;86.80;;;;;;5040415;28;19935;-76
2022/09/11 09:55:30;;;;;;;;;;;18.00;86.60;;;;;;5032856;28;19936;-75
2022/09/11 09:57:56;;;;;;;;;;;18.10;86.60;;;;;;5039031;28;19967;-76
2022/09/11 10:00:23;;;;;;;;;;;18.10;86.50;;;;;;5041005;28;19933;-75
2022/09/11 10:02:53;;;;;;;;;;;18.10;86.20;;;;;;5042044;28;20297;-76
2022/09/11 10:05:23;;;;;;;;;;;18.10;86.20;;;;;;5036361;28;20420;-76
2022/09/11 10:07:52;;;;;;;;;;;18.20;86.20;;;;;;5041057;28;19936;-76
2022/09/11 10:10:24;;;;;;;;;;;18.10;86.90;;;;;;5038538;28;20342;-75
2022/09/11 10:12:51;;;;;;;;;;;18.10;86.00;;;;;;5040922;28;19932;-76
2022/09/11 10:15:21;;;;;;;;;;;18.20;86.10;;;;;;5038273;28;19936;-76
2022/09/11 10:17:48;;;;;;;;;;;18.20;86.10;;;;;;5042338;28;20055;-76
2022/09/11 10:20:21;;;;;;;;;;;18.20;85.90;;;;;;5034665;28;19932;-76
2022/09/11 10:22:49;;;;;;;;;;;18.20;85.80;;;;;;5040939;28;19928;-76
2022/09/11 10:25:18;;;;;;;;;;;18.30;85.90;;;;;;5036577;28;20031;-75
2022/09/11 10:27:55;;;;;;;;;;;18.30;85.70;;;;;;5042012;28;19972;-75
2022/09/11 10:30:26;;;;;;;;;;;18.20;85.60;;;;;;5040073;28;19964;-76
2022/09/11 10:32:54;;;;;;;;;;;18.20;85.50;;;;;;5039489;28;20383;-76
2022/09/11 10:35:21;;;;;;;;;;;18.30;85.40;;;;;;5038419;28;19929;-76
2022/09/11 10:37:59;;;;;;;;;;;18.30;85.40;;;;;;5043589;28;20035;-76
2022/09/11 10:40:27;;;;;;;;;;;18.30;85.40;;;;;;5040287;28;19940;-77
2022/09/11 10:42:54;;;;;;;;;;;18.30;85.30;;;;;;5042921;28;20313;-76
2022/09/11 10:45:21;;;;;;;;;;;18.30;85.30;;;;;;5043901;28;20031;-76
2022/09/11 10:47:48;;;;;;;;;;;18.30;85.30;;;;;;5046146;28;19933;-76
2022/09/11 10:50:22;;;;;;;;;;;18.30;85.30;;;;;;5042945;28;20015;-76
2022/09/11 10:52:55;;;;;;;;;;;18.30;85.50;;;;;;5041124;28;19929;-76
2022/09/11 10:55:21;;;;;;;;;;;18.40;85.50;;;;;;5037702;28;20653;-76
2022/09/11 10:57:51;;;;;;;;;;;18.30;85.60;;;;;;5046076;28;20312;-77
2022/09/11 11:00:23;;;;;;;;;;;18.30;85.70;;;;;;5043811;28;19928;-76
2022/09/11 11:02:51;;;;;;;;;;;18.30;85.50;;;;;;5048142;28;20446;-76
2022/09/11 11:05:23;;;;;;;;;;;18.30;85.50;;;;;;5043510;28;20024;-76
2022/09/11 11:08:16;;;;;;;;;;;18.40;85.70;;;;;;5044404;28;19936;-77
2022/09/11 11:11:10;;;;;;;;;;;18.40;85.50;;;;;;5046407;28;19940;-76
2022/09/11 11:13:46;;;;;;;;;;;18.40;85.50;;;;;;5044456;28;20014;-76
2022/09/11 11:16:17;;;;;;;;;;;18.40;85.40;;;;;;5046946;28;19928;-76
2022/09/11 11:18:51;;;;;;;;;;;18.40;85.40;;;;;;5042750;28;19929;-76
2022/09/11 11:21:24;;;;;;;;;;;18.40;85.30;;;;;;5044888;28;19933;-76
2022/09/11 11:23:55;;;;;;;;;;;18.50;85.40;;;;;;5045294;28;19983;-75
2022/09/11 11:26:36;;;;;;;;;;;18.50;85.30;;;;;;5041088;28;19939;-76
2022/09/11 11:29:27;;;;;;;;;;;18.60;85.10;;;;;;5041527;28;20023;-76
2022/09/11 11:32:00;;;;;;;;;;;18.60;85.00;;;;;;5043844;28;19935;-77
2022/09/11 11:34:32;;;;;;;;;;;18.60;85.00;;;;;;5042364;28;19936;-76
2022/09/11 11:37:01;;;;;;;;;;;18.60;85.10;;;;;;5045286;28;20006;-77
2022/09/11 11:39:30;;;;;;;;;;;18.60;84.70;;;;;;5045589;28;20426;-76
2022/09/11 11:42:04;;;;;;;;;;;18.60;84.60;;;;;;5043429;28;19928;-76
2022/09/11 11:44:33;;;;;;;;;;;18.70;84.60;;;;;;5041314;28;20601;-77
2022/09/11 11:47:02;;;;;;;;;;;18.70;84.50;;;;;;5043618;28;19935;-76
2022/09/11 11:49:31;;;;;;;;;;;18.80;84.30;;;;;;5043123;28;19941;-76
2022/09/11 11:52:03;;;;;;;;;;;18.80;84.00;;;;;;5040996;28;20389;-76
2022/09/11 11:54:32;;;;;;;;;;;18.80;83.80;;;;;;5041402;28;19928;-76
2022/09/11 11:57:00;;;;;;;;;;;18.90;83.80;;;;;;5039904;28;20639;-76
2022/09/11 11:59:30;;;;;;;;;;;18.90;83.50;;;;;;5042892;28;19935;-76
2022/09/11 12:02:02;;;;;;;;;;;18.90;83.20;;;;;;5037703;28;19936;-76
2022/09/11 12:04:34;;;;;;;;;;;19.00;83.10;;;;;;5042782;28;20705;-76
2022/09/11 12:07:01;;;;;;;;;;;19.10;82.90;;;;;;5043412;28;20157;-76
2022/09/11 12:09:30;;;;;;;;;;;19.10;82.70;;;;;;5042074;28;20002;-76
2022/09/11 12:12:03;;;;;;;;;;;19.10;82.60;;;;;;5045781;28;19975;-76
2022/09/11 12:14:32;;;;;;;;;;;19.10;82.40;;;;;;5046605;28;19955;-76
2022/09/11 12:17:16;;;;;;;;;;;19.10;82.40;;;;;;5042963;28;19928;-76
2022/09/11 12:19:58;;;;;;;;;;;19.10;82.30;;;;;;5028240;28;20015;-77
2022/09/11 12:22:36;;;;;;;;;;;19.10;82.20;;;;;;5042688;28;20003;-77
2022/09/11 12:25:03;;;;;;;;;;;19.20;82.30;;;;;;5039285;28;19935;-77
2022/09/11 12:27:50;;;;;;;;;;;19.20;82.30;;;;;;5043445;28;19963;-77
2022/09/11 12:30:21;;;;;;;;;;;19.20;82.30;;;;;;5009008;28;20020;-77
2022/09/11 12:32:50;;;;;;;;;;;19.10;82.10;;;;;;5039091;28;20124;-77
2022/09/11 12:35:27;;;;;;;;;;;19.20;82.20;;;;;;5041688;28;20659;-77
2022/09/11 12:37:56;;;;;;;;;;;19.10;82.10;;;;;;5041498;28;19932;-77
2022/09/11 12:40:28;;;;;;;;;;;19.20;82.20;;;;;;5042707;28;19948;-77
2022/09/11 12:42:56;;;;;;;;;;;19.20;82.30;;;;;;5036273;28;19929;-77
2022/09/11 12:45:30;;;;;;;;;;;19.10;82.20;;;;;;5041239;28;20001;-77
2022/09/11 12:48:03;;;;;;;;;;;19.20;82.30;;;;;;5042119;28;20032;-77
2022/09/11 12:50:29;;;;;;;;;;;19.10;82.20;;;;;;5038158;28;19936;-78
2022/09/11 12:53:01;;;;;;;;;;;19.20;82.30;;;;;;5040733;28;19963;-77
2022/09/11 12:55:36;;;;;;;;;;;19.20;82.30;;;;;;5034251;28;19968;-76
2022/09/11 12:58:05;;;;;;;;;;;19.20;82.40;;;;;;5040323;28;19999;-77
2022/09/11 13:00:35;;;;;;;;;;;19.20;82.30;;;;;;5038772;28;19936;-78
2022/09/11 13:03:03;;;;;;;;;;;19.20;82.20;;;;;;5039718;28;19936;-78
2022/09/11 13:05:33;;;;;;;;;;;19.20;82.20;;;;;;5040695;28;19928;-76
2022/09/11 13:08:03;;;;;;;;;;;19.20;82.20;;;;;;5043704;28;19936;-75
2022/09/11 13:10:32;;;;;;;;;;;19.30;82.30;;;;;;5038212;28;20014;-77
2022/09/11 13:13:01;;;;;;;;;;;19.30;82.00;;;;;;5043785;28;19937;-75
2022/09/11 13:15:35;;;;;;;;;;;19.30;81.70;;;;;;5042868;28;20285;-76
2022/09/11 13:18:15;;;;;;;;;;;19.40;81.50;;;;;;5036824;28;19936;-76
2022/09/11 13:20:41;;;;;;;;;;;19.50;81.30;;;;;;5041969;28;19935;-76
2022/09/11 13:23:12;;;;;;;;;;;19.50;80.90;;;;;;5042853;28;19942;-75
2022/09/11 13:25:40;;;;;;;;;;;19.50;80.50;;;;;;5035930;28;19943;-77
2022/09/11 13:28:06;;;;;;;;;;;19.60;80.30;;;;;;5042554;28;20703;-77
2022/09/11 13:30:33;;;;;;;;;;;19.70;80.20;;;;;;5041719;28;19935;-76
2022/09/11 13:33:03;;;;;;;;;;;19.70;79.90;;;;;;5043679;28;19932;-76
2022/09/11 13:35:31;;;;;;;;;;;19.70;79.80;;;;;;5037916;28;19956;-76
2022/09/11 13:38:01;;;;;;;;;;;19.80;80.00;;;;;;5049956;28;19932;-77
2022/09/11 13:40:30;;;;;;;;;;;19.80;79.60;;;;;;5040559;28;20526;-76
2022/09/11 13:42:56;;;;;;;;;;;19.80;79.60;;;;;;5044275;28;19936;-76
2022/09/11 13:45:23;;;;;;;;;;;19.80;79.40;;;;;;5042375;28;19932;-76
2022/09/11 13:47:53;;;;;;;;;;;19.80;79.30;;;;;;5043809;28;20505;-77
2022/09/11 13:50:21;;;;;;;;;;;19.80;79.30;;;;;;5042947;28;19933;-76
2022/09/11 13:52:50;;;;;;;;;;;19.80;79.20;;;;;;5041944;28;19933;-77
2022/09/11 13:55:18;;;;;;;;;;;19.90;79.20;;;;;;5039841;28;20324;-77
2022/09/11 13:57:52;;;;;;;;;;;19.90;79.10;;;;;;5038153;28;19928;-77
2022/09/11 14:00:39;;;;;;;;;;;19.80;79.10;;;;;;5040831;28;20023;-76
2022/09/11 14:03:06;;;;;;;;;;;19.90;79.10;;;;;;5043745;28;19932;-74
2022/09/11 14:05:35;;;;;;;;;;;19.90;79.10;;;;;;5042993;28;20328;-77
2022/09/11 14:08:06;;;;;;;;;;;19.90;79.00;;;;;;5046090;28;19935;-76
2022/09/11 14:10:33;;;;;;;;;;;19.90;79.00;;;;;;5033822;28;19970;-77
2022/09/11 14:13:03;;;;;;;;;;;19.90;78.90;;;;;;5043678;28;20444;-76
2022/09/11 14:15:38;;;;;;;;;;;19.90;78.90;;;;;;5044262;28;19928;-76
2022/09/11 14:18:07;;;;;;;;;;;20.00;78.90;;;;;;5049728;28;19925;-74
2022/09/11 14:20:34;;;;;;;;;;;20.00;78.60;;;;;;5045209;28;19940;-76
2022/09/11 14:23:03;;;;;;;;;;;20.00;78.30;;;;;;5049608;28;19929;-76
2022/09/11 14:25:32;;;;;;;;;;;20.00;78.30;;;;;;5040792;28;19936;-76
2022/09/11 14:27:59;;;;;;;;;;;20.10;78.50;;;;;;5040343;28;19937;-76